Time;durP1;ratioP1;P1;durP2;ratioP2;P2;SDS_P1;SDS_P2;PMS_P1;PMS_P2;Temp;Humidity;BMP_temperature;BMP_pressure;BME280_temperature;BME280_humidity;BME280_pressure;Samples;Min_cycle;Max_cycle;Signal;HPM_P1;HPM_P2
2022/12/31 00:00:01;;;;;;;9.48;6.03;;;6.60;66.80;;;;;;6057614;23;114311;-83
2022/12/31 00:02:31;;;;;;;8.10;5.03;;;6.60;66.70;;;;;;6084200;23;115574;-82
2022/12/31 00:04:58;;;;;;;10.80;6.40;;;6.70;66.70;;;;;;6082841;23;114991;-82
2022/12/31 00:07:26;;;;;;;9.75;5.25;;;6.70;66.70;;;;;;6055916;23;114614;-81
2022/12/31 00:09:54;;;;;;;9.68;5.90;;;6.70;66.70;;;;;;6083470;23;114207;-84
2022/12/31 00:12:21;;;;;;;8.63;5.22;;;6.70;66.70;;;;;;6057839;23;114893;-82
2022/12/31 00:14:48;;;;;;;8.20;5.05;;;6.80;66.70;;;;;;6056086;23;117057;-82
2022/12/31 00:17:15;;;;;;;8.48;5.20;;;6.80;66.70;;;;;;6081957;23;114543;-83
2022/12/31 00:19:43;;;;;;;8.05;5.32;;;6.90;66.70;;;;;;6083176;23;114158;-83
2022/12/31 00:22:10;;;;;;;7.70;5.00;;;6.90;66.70;;;;;;6033497;23;114725;-82
2022/12/31 00:24:37;;;;;;;10.23;5.90;;;7.00;66.60;;;;;;6081643;23;115153;-83
2022/12/31 00:27:04;;;;;;;8.48;5.18;;;7.00;66.60;;;;;;6057265;23;114806;-83
2022/12/31 00:29:32;;;;;;;9.73;5.40;;;7.00;66.50;;;;;;6057277;23;114775;-83
2022/12/31 00:31:59;;;;;;;9.20;5.88;;;7.10;66.50;;;;;;6057316;23;114398;-83
2022/12/31 00:34:26;;;;;;;8.35;5.45;;;7.10;66.50;;;;;;6032390;23;115555;-82
2022/12/31 00:36:53;;;;;;;7.57;5.22;;;7.10;66.50;;;;;;6111743;23;114485;-83
2022/12/31 00:39:21;;;;;;;8.77;5.30;;;7.10;66.50;;;;;;6062711;23;114611;-82
2022/12/31 00:41:48;;;;;;;8.63;5.38;;;7.10;66.70;;;;;;6086902;23;114293;-82
2022/12/31 00:44:15;;;;;;;7.38;5.20;;;7.10;66.80;;;;;;6111473;23;115710;-82
2022/12/31 00:46:43;;;;;;;9.18;5.78;;;7.20;66.80;;;;;;6111612;23;114704;-82
2022/12/31 00:49:09;;;;;;;10.77;5.63;;;7.20;66.80;;;;;;6112886;23;114323;-82
2022/12/31 00:51:36;;;;;;;8.32;5.57;;;7.20;66.80;;;;;;6062111;23;114514;-83
2022/12/31 00:54:05;;;;;;;9.80;6.25;;;7.20;66.90;;;;;;6085724;23;115041;-82
2022/12/31 00:56:32;;;;;;;8.73;5.43;;;7.20;66.90;;;;;;6061320;23;115870;-82
2022/12/31 00:59:00;;;;;;;9.70;6.13;;;7.20;67.00;;;;;;6112165;23;114564;-82
2022/12/31 01:01:38;;;;;;;9.27;5.68;;;7.20;67.10;;;;;;6062440;23;114329;-83
2022/12/31 01:04:10;;;;;;;9.10;5.28;;;7.20;67.20;;;;;;6084519;23;117663;-82
2022/12/31 01:06:38;;;;;;;10.98;6.25;;;7.20;67.30;;;;;;6060770;23;115709;-82
2022/12/31 01:09:05;;;;;;;8.75;5.53;;;7.30;67.20;;;;;;6062209;23;114251;-82
2022/12/31 01:11:33;;;;;;;9.63;6.65;;;7.30;67.40;;;;;;6086483;23;114619;-82
2022/12/31 01:14:06;;;;;;;9.82;5.95;;;7.30;67.40;;;;;;6061196;23;115272;-82
2022/12/31 01:16:46;;;;;;;8.73;6.05;;;7.30;67.40;;;;;;6086029;23;114709;-82
2022/12/31 01:19:25;;;;;;;8.50;5.70;;;7.30;67.30;;;;;;6088726;23;114328;-83
2022/12/31 01:21:53;;;;;;;10.52;5.60;;;7.40;67.30;;;;;;6040708;23;114261;-83
2022/12/31 01:24:20;;;;;;;8.68;5.70;;;7.40;67.40;;;;;;6036430;23;115476;-83
2022/12/31 01:26:50;;;;;;;8.63;5.70;;;7.40;67.30;;;;;;6061174;23;114725;-83
2022/12/31 01:29:17;;;;;;;10.20;5.43;;;7.40;67.30;;;;;;6087357;23;114276;-84
2022/12/31 01:31:44;;;;;;;9.05;5.80;;;7.50;67.30;;;;;;6085227;23;115021;-82
2022/12/31 01:34:15;;;;;;;10.25;5.88;;;7.50;67.20;;;;;;6099317;23;115319;-84
2022/12/31 01:36:45;;;;;;;10.73;5.68;;;7.60;67.20;;;;;;6063928;23;114699;-83
2022/12/31 01:39:13;;;;;;;9.07;6.10;;;7.60;67.20;;;;;;6084980;23;114092;-83
2022/12/31 01:41:44;;;;;;;9.43;6.43;;;7.60;67.20;;;;;;6087537;23;114262;-83
2022/12/31 01:44:12;;;;;;;9.90;6.63;;;7.60;67.10;;;;;;6085418;23;115698;-83
2022/12/31 01:46:57;;;;;;;10.10;6.88;;;7.60;67.00;;;;;;6083928;23;114553;-84
2022/12/31 01:49:34;;;;;;;10.27;6.45;;;7.60;67.00;;;;;;6037495;23;114210;-83
2022/12/31 01:52:08;;;;;;;10.55;6.90;;;7.60;67.10;;;;;;6082709;23;114438;-83
2022/12/31 01:54:39;;;;;;;8.47;6.70;;;7.60;67.20;;;;;;6056643;23;116734;-83
2022/12/31 01:57:07;;;;;;;10.85;6.50;;;7.60;67.20;;;;;;6082028;23;114545;-83
2022/12/31 01:59:34;;;;;;;10.75;5.82;;;7.60;67.10;;;;;;6083016;23;114325;-82
2022/12/31 02:02:02;;;;;;;9.00;5.70;;;7.60;67.10;;;;;;6056860;23;114638;-82
2022/12/31 02:04:29;;;;;;;7.57;5.13;;;7.60;67.20;;;;;;6056782;23;115044;-83
2022/12/31 02:07:05;;;;;;;8.43;5.57;;;7.50;67.20;;;;;;6057348;23;114561;-83
2022/12/31 02:09:37;;;;;;;11.90;5.88;;;7.60;67.50;;;;;;6058663;23;114537;-83
2022/12/31 02:12:05;;;;;;;10.30;5.85;;;7.50;67.50;;;;;;6035530;23;114680;-83
2022/12/31 02:14:44;;;;;;;10.23;5.80;;;7.50;67.80;;;;;;6080488;23;115496;-82
2022/12/31 02:17:33;;;;;;;9.35;5.63;;;7.60;68.10;;;;;;6080952;23;114476;-83
2022/12/31 02:20:12;;;;;;;9.60;5.40;;;7.60;68.30;;;;;;6083421;23;114363;-83
2022/12/31 02:23:03;;;;;;;7.28;5.32;;;7.60;68.50;;;;;;6083714;23;114329;-83
2022/12/31 02:25:56;;;;;;;9.73;6.43;;;7.60;68.50;;;;;;6056440;23;118210;-82
2022/12/31 02:28:35;;;;;;;11.85;6.15;;;7.60;68.70;;;;;;6080909;23;114672;-82
2022/12/31 02:31:20;;;;;;;12.25;6.90;;;7.60;68.80;;;;;;6081974;23;114197;-82
2022/12/31 02:34:02;;;;;;;10.60;7.00;;;7.60;68.80;;;;;;6060082;23;114434;-82
2022/12/31 02:36:32;;;;;;;11.82;7.15;;;7.70;68.70;;;;;;6080547;23;116043;-82
2022/12/31 02:38:59;;;;;;;12.48;7.10;;;7.70;68.50;;;;;;6033129;23;114712;-82
2022/12/31 02:44:33;;;;;;;7.78;5.40;;;7.70;68.80;;;;;;6083097;23;114241;-84
2022/12/31 02:47:07;;;;;;;10.10;6.57;;;7.70;68.60;;;;;;6080727;23;115866;-82
2022/12/31 02:50:14;;;;;;;10.20;7.20;;;7.70;68.80;;;;;;6080774;23;114593;-83
2022/12/31 02:53:06;;;;;;;10.75;7.32;;;7.70;69.00;;;;;;6083327;23;114349;-84
2022/12/31 02:55:45;;;;;;;11.25;7.80;;;7.60;69.20;;;;;;6084316;23;114602;-83
2022/12/31 02:58:15;;;;;;;13.02;8.10;;;7.50;69.30;;;;;;6080761;23;115090;-83
2022/12/31 03:03:38;;;;;;;17.02;10.25;;;7.50;69.50;;;;;;6081889;23;114336;-83
2022/12/31 03:06:06;;;;;;;16.42;10.57;;;7.40;69.60;;;;;;6057225;23;114237;-83
2022/12/31 03:09:11;;;;;;;16.65;9.68;;;7.40;69.50;;;;;;6079615;23;115084;-83
2022/12/31 03:14:18;;;;;;;19.02;12.63;;;7.50;69.60;;;;;;6069860;23;116690;-84
2022/12/31 03:16:47;;;;;;;18.42;11.90;;;7.50;69.50;;;;;;6082811;23;115107;-83
2022/12/31 03:27:33;;;;;;;18.00;12.13;;;7.60;69.40;;;;;;6061700;23;114693;-84
2022/12/31 03:30:00;;;;;;;17.35;11.23;;;7.60;69.30;;;;;;6080411;23;115165;-84
2022/12/31 03:32:27;;;;;;;20.42;12.75;;;7.60;69.30;;;;;;6082763;23;114540;-84
2022/12/31 03:34:55;;;;;;;17.92;12.60;;;7.60;69.20;;;;;;6057063;23;114431;-84
2022/12/31 03:37:22;;;;;;;17.70;11.82;;;7.70;69.10;;;;;;6081731;23;114609;-84
2022/12/31 03:39:49;;;;;;;21.33;12.63;;;7.70;69.00;;;;;;6082224;23;115022;-83
2022/12/31 03:42:16;;;;;;;15.90;12.18;;;7.70;69.00;;;;;;6080944;23;114475;-83
2022/12/31 03:44:44;;;;;;;20.08;11.52;;;7.70;68.90;;;;;;6083335;23;114435;-83
2022/12/31 03:47:11;;;;;;;16.45;11.73;;;7.70;68.90;;;;;;6083517;23;114445;-83
2022/12/31 03:49:38;;;;;;;17.17;11.23;;;7.70;68.90;;;;;;6082562;23;115085;-83
2022/12/31 03:52:07;;;;;;;12.73;8.80;;;7.70;68.80;;;;;;6080801;23;117396;-84
2022/12/31 03:54:34;;;;;;;13.10;8.43;;;7.70;68.70;;;;;;6082096;23;114739;-84
2022/12/31 03:57:01;;;;;;;13.13;9.02;;;7.70;68.70;;;;;;6081888;23;114231;-84
2022/12/31 03:59:29;;;;;;;14.48;9.00;;;7.70;68.70;;;;;;6080263;23;116154;-84
2022/12/31 04:01:56;;;;;;;14.98;9.95;;;7.70;68.70;;;;;;6082282;23;114523;-83
2022/12/31 04:04:23;;;;;;;12.55;9.25;;;7.70;68.70;;;;;;6083444;23;114295;-83
2022/12/31 04:06:52;;;;;;;13.38;8.45;;;7.70;68.70;;;;;;6083325;23;114499;-83
2022/12/31 04:09:19;;;;;;;15.50;9.32;;;7.70;68.70;;;;;;6057887;23;115060;-82
2022/12/31 04:11:46;;;;;;;17.77;9.95;;;7.70;68.70;;;;;;6083122;23;114522;-83
2022/12/31 04:14:16;;;;;;;14.88;8.45;;;7.80;68.80;;;;;;6058226;23;114371;-83
2022/12/31 04:16:43;;;;;;;14.02;8.90;;;7.80;68.80;;;;;;6084372;23;114556;-84
2022/12/31 04:19:12;;;;;;;15.73;8.18;;;7.70;68.80;;;;;;6033557;23;114714;-83
2022/12/31 04:21:39;;;;;;;11.30;7.60;;;7.80;68.80;;;;;;6056963;23;114673;-83
2022/12/31 04:24:07;;;;;;;12.57;7.70;;;7.80;68.80;;;;;;6083124;23;114518;-83
2022/12/31 04:26:34;;;;;;;10.32;7.43;;;7.80;68.90;;;;;;6081113;23;115865;-83
2022/12/31 04:29:02;;;;;;;12.65;7.93;;;7.80;68.80;;;;;;6032271;23;116150;-83
2022/12/31 04:31:30;;;;;;;9.90;7.07;;;7.80;68.80;;;;;;6081200;23;114587;-83
2022/12/31 04:33:57;;;;;;;13.05;8.18;;;7.80;68.80;;;;;;6033367;23;114625;-83
2022/12/31 04:36:24;;;;;;;10.75;7.30;;;7.90;68.80;;;;;;6089986;23;114236;-83
2022/12/31 04:38:51;;;;;;;9.50;6.57;;;7.80;68.80;;;;;;6061853;23;115085;-84
2022/12/31 04:41:19;;;;;;;11.07;7.38;;;7.90;68.80;;;;;;6086113;23;115641;-83
2022/12/31 04:43:49;;;;;;;11.07;7.30;;;7.80;68.80;;;;;;6062777;23;114354;-83
2022/12/31 04:46:20;;;;;;;9.90;7.25;;;7.90;68.90;;;;;;6087052;23;114664;-83
2022/12/31 04:48:48;;;;;;;10.30;7.15;;;7.90;68.90;;;;;;6085072;23;115191;-83
2022/12/31 04:51:15;;;;;;;10.50;7.47;;;7.90;68.90;;;;;;6110193;23;115014;-83
2022/12/31 04:53:42;;;;;;;10.15;7.47;;;7.80;69.00;;;;;;6062957;23;114686;-83
2022/12/31 04:56:10;;;;;;;11.93;7.85;;;7.90;69.00;;;;;;6062902;23;114241;-83
2022/12/31 04:58:37;;;;;;;10.32;6.97;;;7.90;69.00;;;;;;6061267;23;115189;-83
2022/12/31 05:01:05;;;;;;;11.73;6.60;;;7.90;69.00;;;;;;6061731;23;115632;-81
2022/12/31 05:03:32;;;;;;;12.02;6.60;;;7.90;69.00;;;;;;6038426;23;114222;-83
2022/12/31 05:06:05;;;;;;;12.05;6.75;;;7.90;68.90;;;;;;6014866;23;114279;-84
2022/12/31 05:08:33;;;;;;;10.43;6.97;;;7.90;69.00;;;;;;6039051;23;116367;-83
2022/12/31 05:11:00;;;;;;;10.88;7.00;;;8.00;69.00;;;;;;6112029;23;114500;-83
2022/12/31 05:13:27;;;;;;;11.77;7.05;;;8.00;69.00;;;;;;6086878;23;114612;-83
2022/12/31 05:16:00;;;;;;;11.23;6.55;;;8.00;69.00;;;;;;6112765;23;114195;-83
2022/12/31 05:18:31;;;;;;;10.80;7.18;;;8.00;69.00;;;;;;6086283;23;115140;-84
2022/12/31 05:20:59;;;;;;;9.65;6.90;;;8.00;69.00;;;;;;6061617;23;114590;-82
2022/12/31 05:23:26;;;;;;;11.23;7.18;;;8.00;69.10;;;;;;6112832;23;114341;-83
2022/12/31 05:25:53;;;;;;;10.13;6.32;;;8.00;69.10;;;;;;6086462;23;114264;-83
2022/12/31 05:28:20;;;;;;;9.18;5.25;;;8.00;69.10;;;;;;6111157;23;114928;-83
2022/12/31 05:30:48;;;;;;;8.48;6.00;;;8.00;69.10;;;;;;6061187;23;115118;-82
2022/12/31 05:33:17;;;;;;;9.07;5.60;;;7.90;69.20;;;;;;6112439;23;114568;-83
2022/12/31 05:35:44;;;;;;;7.63;5.22;;;7.90;69.30;;;;;;6037138;23;114464;-83
2022/12/31 05:38:11;;;;;;;8.95;6.00;;;7.90;69.40;;;;;;6031876;23;117791;-83
2022/12/31 05:40:38;;;;;;;6.88;4.70;;;7.90;69.40;;;;;;6032909;23;114505;-84
2022/12/31 05:43:06;;;;;;;7.18;4.57;;;7.90;69.50;;;;;;6057651;23;114482;-84
2022/12/31 05:45:33;;;;;;;7.05;4.70;;;7.90;69.50;;;;;;6084232;23;114646;-84
2022/12/31 05:48:00;;;;;;;6.72;4.63;;;7.90;69.60;;;;;;6009248;23;116217;-82
2022/12/31 05:50:27;;;;;;;11.68;6.10;;;7.90;69.60;;;;;;6009354;23;114638;-83
2022/12/31 05:52:55;;;;;;;9.15;5.85;;;7.90;69.70;;;;;;6058375;23;114528;-83
2022/12/31 05:55:22;;;;;;;9.98;6.13;;;7.90;69.70;;;;;;6068779;23;114480;-82
2022/12/31 05:57:50;;;;;;;9.32;5.90;;;7.90;69.70;;;;;;6051349;23;114317;-83
2022/12/31 06:00:17;;;;;;;10.60;6.15;;;8.00;69.70;;;;;;6093961;23;114653;-84
2022/12/31 06:02:45;;;;;;;7.15;5.10;;;8.00;69.60;;;;;;6088036;23;114558;-83
2022/12/31 06:05:12;;;;;;;9.50;5.47;;;8.00;69.60;;;;;;6090806;23;114518;-84
2022/12/31 06:07:39;;;;;;;7.05;4.57;;;8.00;69.60;;;;;;6037710;23;115196;-83
2022/12/31 06:10:07;;;;;;;5.40;3.30;;;8.00;69.70;;;;;;6059416;23;114581;-83
2022/12/31 06:12:34;;;;;;;4.28;2.50;;;8.10;69.60;;;;;;6036159;23;114874;-83
2022/12/31 06:15:04;;;;;;;4.85;2.80;;;8.00;69.50;;;;;;6033152;23;114515;-84
2022/12/31 06:17:32;;;;;;;5.32;2.40;;;8.00;69.50;;;;;;6056771;23;115058;-85
2022/12/31 06:19:59;;;;;;;4.38;2.42;;;8.00;69.50;;;;;;6082576;23;114512;-84
2022/12/31 06:22:27;;;;;;;4.18;2.42;;;8.00;69.50;;;;;;6058421;23;114810;-85
2022/12/31 06:24:54;;;;;;;3.80;2.40;;;8.00;69.50;;;;;;6083441;23;114705;-84
2022/12/31 06:27:22;;;;;;;2.55;1.50;;;8.00;69.50;;;;;;6080202;23;117377;-84
2022/12/31 06:29:49;;;;;;;3.42;2.10;;;7.90;69.50;;;;;;6081628;23;114500;-85
2022/12/31 06:32:17;;;;;;;3.10;2.00;;;7.90;69.60;;;;;;6056140;23;116127;-84
2022/12/31 06:34:44;;;;;;;3.15;1.98;;;7.90;69.70;;;;;;6057439;23;114315;-84
2022/12/31 06:37:11;;;;;;;4.00;2.28;;;7.90;69.60;;;;;;6031932;23;116397;-84
2022/12/31 06:39:40;;;;;;;4.55;2.72;;;7.90;69.70;;;;;;6056311;23;115057;-84
2022/12/31 06:42:07;;;;;;;4.38;2.50;;;7.90;69.70;;;;;;6057780;23;114334;-84
2022/12/31 06:44:34;;;;;;;2.90;1.65;;;7.90;69.70;;;;;;6056573;23;115181;-85
2022/12/31 06:47:01;;;;;;;2.88;1.70;;;7.90;69.70;;;;;;6032193;23;115144;-85
2022/12/31 06:49:28;;;;;;;2.75;1.60;;;7.90;69.70;;;;;;6080250;23;114735;-85
2022/12/31 06:51:56;;;;;;;3.15;1.65;;;7.90;69.80;;;;;;6056291;23;114409;-84
2022/12/31 06:54:23;;;;;;;3.83;1.70;;;7.90;69.90;;;;;;6082374;23;114698;-84
2022/12/31 06:56:52;;;;;;;2.90;1.70;;;7.80;69.90;;;;;;6081668;23;115135;-83
2022/12/31 06:59:40;;;;;;;3.08;1.52;;;7.90;70.00;;;;;;6030406;23;114774;-83
2022/12/31 07:02:25;;;;;;;3.03;1.77;;;7.90;70.00;;;;;;6033625;23;114505;-85
2022/12/31 07:05:09;;;;;;;3.20;1.70;;;7.90;70.10;;;;;;6032308;23;114516;-84
2022/12/31 07:07:45;;;;;;;3.72;2.00;;;7.80;70.10;;;;;;6081590;23;115285;-82
2022/12/31 07:10:41;;;;;;;3.58;1.98;;;7.80;70.10;;;;;;6056443;23;115138;-83
2022/12/31 07:13:35;;;;;;;3.78;2.00;;;7.90;70.10;;;;;;5981893;23;114486;-83
2022/12/31 07:16:53;;;;;;;3.10;1.85;;;7.90;70.10;;;;;;5956881;23;114582;-83
2022/12/31 07:19:31;;;;;;;3.25;2.15;;;7.90;70.00;;;;;;5967184;23;115190;-82
2022/12/31 07:21:58;;;;;;;4.72;2.60;;;7.90;70.10;;;;;;5973643;23;115392;-83
2022/12/31 07:24:26;;;;;;;4.00;2.50;;;7.90;70.10;;;;;;5997240;23;114670;-83
2022/12/31 07:27:19;;;;;;;4.40;2.53;;;7.90;70.10;;;;;;5998025;23;114796;-84
2022/12/31 07:30:02;;;;;;;3.88;2.60;;;8.00;69.90;;;;;;5995647;23;115687;-83
2022/12/31 07:33:03;;;;;;;4.82;2.95;;;8.10;70.00;;;;;;5972592;23;115628;-84
2022/12/31 07:35:56;;;;;;;8.07;3.42;;;8.00;70.00;;;;;;6021632;23;114403;-83
2022/12/31 07:38:42;;;;;;;6.43;3.97;;;8.00;70.00;;;;;;6022006;23;114417;-84
2022/12/31 07:41:24;;;;;;;8.25;4.70;;;8.10;70.10;;;;;;6019890;23;115087;-84
2022/12/31 07:44:07;;;;;;;10.20;5.50;;;8.10;70.10;;;;;;5968320;23;116665;-84
2022/12/31 07:46:54;;;;;;;11.45;5.30;;;8.20;70.30;;;;;;6032302;23;114766;-84
2022/12/31 07:49:23;;;;;;;7.97;4.43;;;8.20;70.50;;;;;;6034684;23;114577;-84
2022/12/31 07:51:51;;;;;;;7.45;4.50;;;8.30;70.20;;;;;;6055081;23;115129;-84
2022/12/31 07:54:18;;;;;;;6.38;4.28;;;8.30;70.50;;;;;;6055721;23;114717;-84
2022/12/31 07:56:47;;;;;;;8.38;4.05;;;8.40;69.90;;;;;;6032569;23;114637;-84
2022/12/31 07:59:39;;;;;;;6.18;3.50;;;8.50;69.80;;;;;;6008472;23;114647;-83
2022/12/31 08:02:28;;;;;;;10.18;4.68;;;8.60;69.60;;;;;;6080140;23;115099;-84
2022/12/31 08:05:09;;;;;;;8.90;4.55;;;8.60;69.50;;;;;;6081517;23;114765;-83
2022/12/31 08:07:56;;;;;;;8.40;4.45;;;8.60;69.50;;;;;;6036612;23;114434;-84
2022/12/31 08:10:58;;;;;;;8.55;4.93;;;8.70;69.20;;;;;;6101050;23;116312;-84
2022/12/31 08:13:26;;;;;;;9.57;4.95;;;8.70;69.20;;;;;;6070703;23;116406;-84
2022/12/31 08:15:54;;;;;;;6.05;4.25;;;8.70;69.10;;;;;;6065659;23;116328;-84
2022/12/31 08:18:22;;;;;;;7.90;4.30;;;8.70;69.00;;;;;;6063066;23;114307;-84
2022/12/31 08:21:36;;;;;;;7.30;4.85;;;8.80;68.90;;;;;;6059994;23;114307;-84
2022/12/31 08:24:56;;;;;;;8.70;5.10;;;8.80;68.80;;;;;;5998241;23;115010;-82
2022/12/31 08:27:36;;;;;;;8.77;4.78;;;8.80;68.80;;;;;;6064671;23;114381;-87
2022/12/31 08:30:14;;;;;;;8.43;5.18;;;8.80;69.00;;;;;;6058822;23;114447;-83
2022/12/31 08:33:09;;;;;;;9.82;5.60;;;8.90;69.00;;;;;;6034233;23;114870;-83
2022/12/31 08:35:56;;;;;;;10.50;5.72;;;8.90;69.00;;;;;;6060984;23;115136;-84
2022/12/31 08:39:20;;;;;;;9.70;5.25;;;8.90;69.00;;;;;;6057319;23;115121;-84
2022/12/31 08:41:51;;;;;;;11.52;6.18;;;9.00;68.80;;;;;;6054955;23;114357;-84
2022/12/31 08:44:37;;;;;;;8.68;6.32;;;9.00;68.90;;;;;;6031919;23;114499;-86
2022/12/31 08:47:25;;;;;;;11.38;5.53;;;9.10;68.90;;;;;;6054783;23;115132;-84
2022/12/31 08:49:54;;;;;;;9.35;5.32;;;9.10;68.90;;;;;;6032668;23;114835;-83
2022/12/31 08:52:25;;;;;;;7.47;4.80;;;9.10;68.90;;;;;;6033079;23;114978;-82
2022/12/31 08:54:53;;;;;;;7.90;5.22;;;9.20;68.80;;;;;;6032194;23;114470;-84
2022/12/31 08:57:36;;;;;;;10.02;5.25;;;9.20;68.80;;;;;;6031643;23;115025;-83
2022/12/31 09:00:15;;;;;;;11.63;5.68;;;9.20;68.70;;;;;;6033298;23;115207;-84
2022/12/31 09:02:57;;;;;;;9.63;5.90;;;9.20;68.60;;;;;;6055602;23;114669;-84
2022/12/31 09:05:35;;;;;;;10.43;5.95;;;9.20;68.50;;;;;;6081007;23;114606;-83
2022/12/31 09:08:58;;;;;;;8.45;5.15;;;9.10;68.60;;;;;;6009103;23;115080;-84
2022/12/31 09:11:39;;;;;;;7.45;4.47;;;9.10;68.50;;;;;;6055667;23;114935;-84
2022/12/31 09:14:34;;;;;;;6.20;4.00;;;9.00;68.70;;;;;;6056549;23;114556;-84
2022/12/31 09:17:28;;;;;;;7.18;4.55;;;8.90;68.70;;;;;;6034345;23;114616;-83
2022/12/31 09:19:56;;;;;;;7.30;4.50;;;8.90;69.00;;;;;;6059676;23;115058;-83
2022/12/31 09:22:23;;;;;;;8.02;5.38;;;8.80;69.10;;;;;;6029847;23;117906;-84
2022/12/31 09:24:51;;;;;;;10.65;5.95;;;8.80;69.30;;;;;;6080974;23;114397;-83
2022/12/31 09:27:33;;;;;;;8.77;5.68;;;8.80;69.40;;;;;;6031162;23;114586;-84
2022/12/31 09:30:07;;;;;;;9.97;6.53;;;8.90;69.60;;;;;;6007552;23;114970;-83
2022/12/31 09:32:47;;;;;;;12.55;6.45;;;8.90;69.60;;;;;;6030199;23;114733;-83
2022/12/31 09:35:48;;;;;;;9.32;6.68;;;8.90;69.70;;;;;;6029809;23;114255;-85
2022/12/31 09:38:26;;;;;;;11.32;7.40;;;9.00;69.60;;;;;;6054148;23;114681;-83
2022/12/31 09:41:35;;;;;;;12.13;6.78;;;9.00;69.80;;;;;;6030931;23;115055;-83
2022/12/31 09:44:30;;;;;;;8.93;6.03;;;9.10;69.70;;;;;;5961503;23;114727;-83
2022/12/31 09:47:46;;;;;;;5.82;3.88;;;9.10;69.70;;;;;;5962405;23;114657;-83
2022/12/31 09:50:55;;;;;;;6.40;3.92;;;9.10;69.60;;;;;;6080929;23;114724;-83
2022/12/31 09:53:43;;;;;;;5.60;3.70;;;9.10;69.60;;;;;;6054032;23;116276;-85
2022/12/31 09:56:21;;;;;;;5.57;3.53;;;9.10;69.80;;;;;;6033030;23;114664;-82
2022/12/31 09:59:16;;;;;;;6.30;3.70;;;9.10;69.80;;;;;;6055668;23;114681;-83
2022/12/31 10:01:55;;;;;;;5.35;3.28;;;9.20;69.70;;;;;;6055161;23;114777;-83
2022/12/31 10:05:00;;;;;;;5.13;3.78;;;9.20;69.60;;;;;;6029955;23;115692;-83
2022/12/31 10:07:49;;;;;;;6.45;3.35;;;9.20;69.50;;;;;;6079691;23;114952;-82
2022/12/31 10:11:02;;;;;;;7.30;4.22;;;9.20;69.50;;;;;;6009036;23;115092;-83
2022/12/31 10:14:12;;;;;;;9.90;4.43;;;9.30;69.50;;;;;;6014268;23;114546;-83
2022/12/31 10:17:07;;;;;;;6.97;3.85;;;9.40;69.40;;;;;;6079381;23;115376;-83
2022/12/31 10:20:01;;;;;;;5.68;3.10;;;9.50;69.30;;;;;;6055048;23;114645;-83
2022/12/31 10:22:43;;;;;;;6.20;3.45;;;9.50;69.40;;;;;;6065331;23;114531;-83
2022/12/31 10:25:13;;;;;;;6.45;3.70;;;9.60;69.20;;;;;;6071717;23;115958;-82
2022/12/31 10:28:29;;;;;;;5.80;3.45;;;9.60;69.00;;;;;;6064837;23;114461;-83
2022/12/31 10:31:30;;;;;;;6.05;3.45;;;9.70;68.60;;;;;;6086608;23;115248;-84
2022/12/31 10:34:40;;;;;;;5.82;3.10;;;9.80;68.40;;;;;;6076388;23;114456;-84
2022/12/31 10:37:15;;;;;;;4.47;2.80;;;9.90;68.20;;;;;;6074451;23;114563;-83
2022/12/31 10:39:52;;;;;;;4.35;2.67;;;9.80;68.30;;;;;;6063304;23;115430;-82
2022/12/31 10:42:45;;;;;;;5.93;3.50;;;10.00;68.20;;;;;;6061280;22;115963;-83
2022/12/31 10:45:49;;;;;;;8.05;4.30;;;10.10;67.90;;;;;;6065488;23;114881;-83
2022/12/31 10:48:55;;;;;;;5.82;3.65;;;10.20;67.80;;;;;;6065521;22;114472;-83
2022/12/31 10:51:29;;;;;;;6.65;3.83;;;10.20;67.80;;;;;;6083420;23;116521;-83
2022/12/31 10:54:20;;;;;;;4.57;2.90;;;10.20;67.60;;;;;;6084339;23;115852;-82
2022/12/31 10:57:21;;;;;;;4.70;2.70;;;10.40;67.40;;;;;;6109505;23;115809;-84
2022/12/31 11:00:09;;;;;;;6.85;3.13;;;10.50;67.00;;;;;;6059936;23;114498;-82
2022/12/31 11:02:39;;;;;;;6.47;3.22;;;10.50;66.90;;;;;;6084986;22;115687;-84
2022/12/31 11:05:24;;;;;;;8.93;4.28;;;10.40;66.90;;;;;;6083765;23;117455;-84
2022/12/31 11:08:46;;;;;;;5.57;3.90;;;10.40;66.70;;;;;;6110701;23;115194;-83
2022/12/31 11:11:53;;;;;;;7.93;4.75;;;10.40;66.60;;;;;;6047726;23;114998;-84
2022/12/31 11:15:14;;;;;;;7.15;4.20;;;10.40;66.40;;;;;;6083083;23;115614;-85
2022/12/31 11:18:00;;;;;;;6.50;3.80;;;10.40;66.30;;;;;;6024208;23;115308;-83
2022/12/31 11:20:39;;;;;;;4.93;3.10;;;10.20;66.60;;;;;;6084505;22;114976;-85
2022/12/31 11:23:54;;;;;;;5.00;3.30;;;10.20;66.80;;;;;;6110744;22;118061;-85
2022/12/31 11:26:38;;;;;;;6.00;3.58;;;10.20;66.90;;;;;;6058546;23;118388;-84
2022/12/31 11:29:42;;;;;;;4.70;3.38;;;10.10;67.10;;;;;;6014336;23;117141;-84
2022/12/31 11:32:47;;;;;;;5.82;3.13;;;10.10;67.10;;;;;;6065848;23;115209;-85
2022/12/31 11:35:21;;;;;;;5.32;2.92;;;10.00;67.20;;;;;;6091046;23;114563;-83
2022/12/31 11:37:51;;;;;;;6.53;3.80;;;9.90;67.30;;;;;;6078271;23;115529;-83
2022/12/31 11:41:02;;;;;;;6.53;4.03;;;9.90;67.50;;;;;;6054251;23;115213;-81
2022/12/31 11:44:04;;;;;;;5.75;3.80;;;9.90;67.40;;;;;;6081285;23;114492;-84
2022/12/31 11:46:42;;;;;;;6.45;3.28;;;9.90;67.70;;;;;;6037032;23;114696;-83
2022/12/31 11:49:48;;;;;;;5.07;3.47;;;9.90;67.70;;;;;;6078833;23;115276;-83
2022/12/31 11:52:38;;;;;;;4.63;3.25;;;10.00;67.50;;;;;;6079629;23;114624;-82
2022/12/31 11:55:49;;;;;;;6.05;3.67;;;9.90;67.50;;;;;;6081963;23;114807;-82
2022/12/31 11:58:19;;;;;;;5.70;3.97;;;10.00;67.60;;;;;;6058913;23;114632;-84
2022/12/31 12:01:12;;;;;;;7.22;4.38;;;9.90;67.70;;;;;;6078734;23;115157;-83
2022/12/31 12:03:42;;;;;;;6.35;4.03;;;10.10;67.60;;;;;;6033183;23;117457;-82
2022/12/31 12:06:15;;;;;;;5.72;3.50;;;10.00;67.60;;;;;;6080846;23;115319;-83
2022/12/31 12:08:43;;;;;;;7.60;3.80;;;10.10;67.50;;;;;;6056950;23;114568;-83
2022/12/31 12:11:24;;;;;;;5.75;3.47;;;10.00;67.50;;;;;;6079278;23;115089;-83
2022/12/31 12:13:55;;;;;;;5.65;3.60;;;10.10;67.50;;;;;;6055998;23;116838;-83
2022/12/31 12:16:23;;;;;;;5.55;3.78;;;10.00;67.50;;;;;;6079929;23;114513;-84
2022/12/31 12:19:06;;;;;;;5.57;3.40;;;10.00;67.50;;;;;;6033694;23;114846;-84
2022/12/31 12:21:34;;;;;;;4.80;2.85;;;10.00;67.70;;;;;;6080114;23;115242;-83
2022/12/31 12:24:24;;;;;;;6.20;3.63;;;9.90;67.90;;;;;;6029747;23;115886;-84
2022/12/31 12:26:53;;;;;;;5.47;3.83;;;10.00;67.90;;;;;;6057448;23;114648;-83
2022/12/31 12:29:28;;;;;;;5.40;3.28;;;10.00;68.00;;;;;;6079646;23;114567;-84
2022/12/31 12:32:04;;;;;;;4.97;3.47;;;10.00;68.10;;;;;;6078783;23;116821;-83
2022/12/31 12:34:39;;;;;;;6.15;3.60;;;10.10;68.10;;;;;;6079987;23;114683;-83
2022/12/31 12:37:33;;;;;;;6.20;3.80;;;10.10;68.00;;;;;;6032706;23;114699;-83
2022/12/31 12:40:04;;;;;;;5.55;3.50;;;10.20;68.00;;;;;;6079874;23;115341;-82
2022/12/31 12:42:32;;;;;;;5.32;3.47;;;10.10;68.20;;;;;;6080295;23;115168;-83
2022/12/31 12:45:14;;;;;;;5.70;3.53;;;10.20;68.20;;;;;;6078796;23;114621;-83
2022/12/31 12:47:46;;;;;;;7.90;4.07;;;10.20;68.20;;;;;;6031516;23;114966;-83
2022/12/31 12:50:23;;;;;;;6.18;3.55;;;10.20;68.20;;;;;;6079865;23;114457;-84
2022/12/31 12:53:11;;;;;;;5.60;3.70;;;10.20;68.00;;;;;;6053658;23;115269;-82
2022/12/31 12:56:00;;;;;;;5.63;3.45;;;10.30;68.10;;;;;;6080137;23;114569;-84
2022/12/31 12:59:01;;;;;;;6.88;4.03;;;10.20;68.20;;;;;;6081437;23;114499;-83
2022/12/31 13:01:46;;;;;;;6.43;3.63;;;10.30;68.20;;;;;;6080002;23;114383;-83
2022/12/31 13:04:22;;;;;;;7.63;4.35;;;10.20;68.40;;;;;;6033990;23;115688;-83
2022/12/31 13:07:16;;;;;;;5.50;3.95;;;10.30;68.40;;;;;;6080399;23;114904;-83
2022/12/31 13:10:14;;;;;;;6.88;3.88;;;10.30;68.40;;;;;;6080088;23;114386;-83
2022/12/31 13:13:03;;;;;;;6.38;3.92;;;10.20;68.50;;;;;;6080296;23;114686;-84
2022/12/31 13:16:35;;;;;;;10.88;4.65;;;10.40;68.40;;;;;;6079176;23;115253;-83
2022/12/31 13:19:37;;;;;;;8.45;4.35;;;10.30;68.50;;;;;;6067794;23;115106;-83
2022/12/31 13:22:39;;;;;;;9.05;6.60;;;10.30;68.50;;;;;;6081907;23;114818;-83
2022/12/31 13:25:43;;;;;;;6.47;4.03;;;10.30;68.70;;;;;;6055499;23;114451;-84
2022/12/31 13:28:12;;;;;;;6.15;4.60;;;10.30;68.70;;;;;;6080125;23;115088;-84
2022/12/31 13:31:01;;;;;;;7.72;4.50;;;10.30;68.70;;;;;;6078837;23;115199;-83
2022/12/31 13:33:47;;;;;;;6.38;4.22;;;10.40;68.60;;;;;;6079899;23;114731;-82
2022/12/31 13:36:17;;;;;;;7.07;4.72;;;10.50;68.60;;;;;;6060365;23;114998;-82
2022/12/31 13:38:54;;;;;;;9.07;5.03;;;10.50;68.50;;;;;;6059656;23;115187;-83
2022/12/31 13:41:25;;;;;;;7.40;4.75;;;10.50;68.40;;;;;;6036245;23;114640;-83
2022/12/31 13:44:15;;;;;;;7.70;5.05;;;10.50;68.30;;;;;;6060962;23;115195;-83
2022/12/31 13:47:13;;;;;;;7.25;4.18;;;10.60;68.20;;;;;;6039762;23;114607;-83
2022/12/31 13:49:56;;;;;;;8.02;4.90;;;10.60;68.10;;;;;;6089357;23;115334;-83
2022/12/31 13:52:50;;;;;;;7.07;4.40;;;10.60;68.10;;;;;;6060565;23;114633;-84